sensor_id;sensor_type;location;lat;lon;timestamp;temperature;humidity
57857;DHT22;43683;48.650;9.290;2024-03-02T00:00:14;3.70;97.10
57857;DHT22;43683;48.650;9.290;2024-03-02T00:02:49;3.70;97.10
57857;DHT22;43683;48.650;9.290;2024-03-02T00:05:19;3.70;97.10
57857;DHT22;43683;48.650;9.290;2024-03-02T00:07:47;3.70;97.10
57857;DHT22;43683;48.650;9.290;2024-03-02T00:10:19;3.70;97.10
57857;DHT22;43683;48.650;9.290;2024-03-02T00:12:47;3.70;97.10
57857;DHT22;43683;48.650;9.290;2024-03-02T00:17:56;3.70;97.20
57857;DHT22;43683;48.650;9.290;2024-03-02T00:20:22;3.70;97.20
57857;DHT22;43683;48.650;9.290;2024-03-02T00:22:48;3.70;97.20
57857;DHT22;43683;48.650;9.290;2024-03-02T00:25:14;3.70;97.10
57857;DHT22;43683;48.650;9.290;2024-03-02T00:27:40;3.70;97.10
57857;DHT22;43683;48.650;9.290;2024-03-02T00:32:59;3.70;97.30
57857;DHT22;43683;48.650;9.290;2024-03-02T00:35:24;3.70;97.10
57857;DHT22;43683;48.650;9.290;2024-03-02T00:37:50;3.80;97.20
57857;DHT22;43683;48.650;9.290;2024-03-02T00:40:16;3.80;97.20
57857;DHT22;43683;48.650;9.290;2024-03-02T00:42:42;3.80;97.20
57857;DHT22;43683;48.650;9.290;2024-03-02T00:45:08;3.80;97.20
57857;DHT22;43683;48.650;9.290;2024-03-02T00:47:38;3.80;97.20
57857;DHT22;43683;48.650;9.290;2024-03-02T00:50:05;3.80;97.30
57857;DHT22;43683;48.650;9.290;2024-03-02T00:52:31;3.70;97.20
57857;DHT22;43683;48.650;9.290;2024-03-02T00:54:58;3.70;97.30
57857;DHT22;43683;48.650;9.290;2024-03-02T00:57:24;3.60;97.30
57857;DHT22;43683;48.650;9.290;2024-03-02T00:59:51;3.60;97.40
57857;DHT22;43683;48.650;9.290;2024-03-02T01:02:17;3.50;97.40
57857;DHT22;43683;48.650;9.290;2024-03-02T01:04:45;3.50;97.40
57857;DHT22;43683;48.650;9.290;2024-03-02T01:07:10;3.40;97.50
57857;DHT22;43683;48.650;9.290;2024-03-02T01:09:36;3.40;97.50
57857;DHT22;43683;48.650;9.290;2024-03-02T01:12:01;3.40;97.50
57857;DHT22;43683;48.650;9.290;2024-03-02T01:14:27;3.50;97.40
57857;DHT22;43683;48.650;9.290;2024-03-02T01:16:53;3.50;97.30
57857;DHT22;43683;48.650;9.290;2024-03-02T01:19:19;3.50;97.30
57857;DHT22;43683;48.650;9.290;2024-03-02T01:21:44;3.50;97.30
57857;DHT22;43683;48.650;9.290;2024-03-02T01:24:10;3.50;97.30
57857;DHT22;43683;48.650;9.290;2024-03-02T01:26:35;3.50;97.30
57857;DHT22;43683;48.650;9.290;2024-03-02T01:29:00;3.50;97.40
57857;DHT22;43683;48.650;9.290;2024-03-02T01:31:26;3.40;97.40
57857;DHT22;43683;48.650;9.290;2024-03-02T01:33:52;3.50;97.40
57857;DHT22;43683;48.650;9.290;2024-03-02T01:36:17;3.40;97.40
57857;DHT22;43683;48.650;9.290;2024-03-02T01:38:43;3.40;97.50
57857;DHT22;43683;48.650;9.290;2024-03-02T01:41:08;3.40;97.50
57857;DHT22;43683;48.650;9.290;2024-03-02T01:43:34;3.30;97.50
57857;DHT22;43683;48.650;9.290;2024-03-02T01:45:59;3.30;97.50
57857;DHT22;43683;48.650;9.290;2024-03-02T01:48:25;3.20;97.50
57857;DHT22;43683;48.650;9.290;2024-03-02T01:50:50;3.20;97.60
57857;DHT22;43683;48.650;9.290;2024-03-02T01:53:16;3.20;97.60
57857;DHT22;43683;48.650;9.290;2024-03-02T01:55:41;3.10;97.60
57857;DHT22;43683;48.650;9.290;2024-03-02T01:58:07;3.10;97.70
57857;DHT22;43683;48.650;9.290;2024-03-02T02:00:33;3.00;97.70
57857;DHT22;43683;48.650;9.290;2024-03-02T02:02:58;3.00;97.80
57857;DHT22;43683;48.650;9.290;2024-03-02T02:05:24;2.90;97.90
57857;DHT22;43683;48.650;9.290;2024-03-02T02:07:49;2.90;97.90
57857;DHT22;43683;48.650;9.290;2024-03-02T02:10:15;2.90;97.90
57857;DHT22;43683;48.650;9.290;2024-03-02T02:12:41;2.90;97.90
57857;DHT22;43683;48.650;9.290;2024-03-02T02:15:35;2.80;97.90
57857;DHT22;43683;48.650;9.290;2024-03-02T02:18:01;2.80;98.00
57857;DHT22;43683;48.650;9.290;2024-03-02T02:20:27;2.70;98.00
57857;DHT22;43683;48.650;9.290;2024-03-02T02:22:57;2.60;98.00
57857;DHT22;43683;48.650;9.290;2024-03-02T02:25:23;2.50;98.00
57857;DHT22;43683;48.650;9.290;2024-03-02T02:27:49;2.50;98.00
57857;DHT22;43683;48.650;9.290;2024-03-02T02:30:19;2.40;98.10
57857;DHT22;43683;48.650;9.290;2024-03-02T02:32:45;2.30;98.10
57857;DHT22;43683;48.650;9.290;2024-03-02T02:35:10;2.30;98.20
57857;DHT22;43683;48.650;9.290;2024-03-02T02:37:36;2.20;98.20
57857;DHT22;43683;48.650;9.290;2024-03-02T02:40:02;2.20;98.30
57857;DHT22;43683;48.650;9.290;2024-03-02T02:42:30;2.20;98.20
57857;DHT22;43683;48.650;9.290;2024-03-02T02:44:55;2.10;98.20
57857;DHT22;43683;48.650;9.290;2024-03-02T02:47:21;2.10;98.20
57857;DHT22;43683;48.650;9.290;2024-03-02T02:49:46;2.00;98.20
57857;DHT22;43683;48.650;9.290;2024-03-02T02:52:12;1.90;98.20
57857;DHT22;43683;48.650;9.290;2024-03-02T02:54:38;1.90;98.20
57857;DHT22;43683;48.650;9.290;2024-03-02T02:57:03;1.90;98.20
57857;DHT22;43683;48.650;9.290;2024-03-02T02:59:29;1.80;98.20
57857;DHT22;43683;48.650;9.290;2024-03-02T03:01:54;1.80;98.30
57857;DHT22;43683;48.650;9.290;2024-03-02T03:04:20;1.80;98.40
57857;DHT22;43683;48.650;9.290;2024-03-02T03:06:45;1.90;98.50
57857;DHT22;43683;48.650;9.290;2024-03-02T03:09:11;2.00;98.30
57857;DHT22;43683;48.650;9.290;2024-03-02T03:11:37;2.10;98.20
57857;DHT22;43683;48.650;9.290;2024-03-02T03:14:02;2.20;98.00
57857;DHT22;43683;48.650;9.290;2024-03-02T03:16:28;2.20;98.00
57857;DHT22;43683;48.650;9.290;2024-03-02T03:18:53;2.20;97.90
57857;DHT22;43683;48.650;9.290;2024-03-02T03:21:19;2.20;97.90
57857;DHT22;43683;48.650;9.290;2024-03-02T03:23:45;2.20;97.90
57857;DHT22;43683;48.650;9.290;2024-03-02T03:26:10;2.10;97.90
57857;DHT22;43683;48.650;9.290;2024-03-02T03:28:36;2.10;97.90
57857;DHT22;43683;48.650;9.290;2024-03-02T03:31:01;1.90;98.00
57857;DHT22;43683;48.650;9.290;2024-03-02T03:33:27;1.80;98.10
57857;DHT22;43683;48.650;9.290;2024-03-02T03:35:53;1.60;98.20
57857;DHT22;43683;48.650;9.290;2024-03-02T03:38:18;1.50;98.30
57857;DHT22;43683;48.650;9.290;2024-03-02T03:40:44;1.30;98.30
57857;DHT22;43683;48.650;9.290;2024-03-02T03:43:10;1.20;98.40
57857;DHT22;43683;48.650;9.290;2024-03-02T03:45:36;1.10;98.40
57857;DHT22;43683;48.650;9.290;2024-03-02T03:48:02;1.10;98.50
57857;DHT22;43683;48.650;9.290;2024-03-02T03:50:28;1.10;98.50
57857;DHT22;43683;48.650;9.290;2024-03-02T03:52:53;1.00;98.50
57857;DHT22;43683;48.650;9.290;2024-03-02T03:55:19;0.90;98.50
57857;DHT22;43683;48.650;9.290;2024-03-02T03:57:44;0.90;98.50
57857;DHT22;43683;48.650;9.290;2024-03-02T04:00:10;0.90;98.40
57857;DHT22;43683;48.650;9.290;2024-03-02T04:02:37;0.90;98.30
57857;DHT22;43683;48.650;9.290;2024-03-02T04:05:03;0.80;98.30
57857;DHT22;43683;48.650;9.290;2024-03-02T04:07:30;0.80;98.30
57857;DHT22;43683;48.650;9.290;2024-03-02T04:09:56;0.80;98.30
57857;DHT22;43683;48.650;9.290;2024-03-02T04:12:21;0.80;98.30
57857;DHT22;43683;48.650;9.290;2024-03-02T04:14:47;0.70;98.40
57857;DHT22;43683;48.650;9.290;2024-03-02T04:17:12;0.60;98.40
57857;DHT22;43683;48.650;9.290;2024-03-02T04:19:38;0.60;98.40
57857;DHT22;43683;48.650;9.290;2024-03-02T04:22:04;0.60;98.50
57857;DHT22;43683;48.650;9.290;2024-03-02T04:24:29;0.60;98.70
57857;DHT22;43683;48.650;9.290;2024-03-02T04:26:55;0.70;98.80
57857;DHT22;43683;48.650;9.290;2024-03-02T04:29:21;0.70;98.80
57857;DHT22;43683;48.650;9.290;2024-03-02T04:31:46;0.70;98.90
57857;DHT22;43683;48.650;9.290;2024-03-02T04:34:12;0.70;98.90
57857;DHT22;43683;48.650;9.290;2024-03-02T04:36:37;0.60;98.80
57857;DHT22;43683;48.650;9.290;2024-03-02T04:39:03;0.50;98.80
57857;DHT22;43683;48.650;9.290;2024-03-02T04:41:28;0.50;98.80
57857;DHT22;43683;48.650;9.290;2024-03-02T04:43:54;0.50;98.80
57857;DHT22;43683;48.650;9.290;2024-03-02T04:46:19;0.40;98.80
57857;DHT22;43683;48.650;9.290;2024-03-02T04:48:45;0.40;98.80
57857;DHT22;43683;48.650;9.290;2024-03-02T04:51:10;0.30;98.80
57857;DHT22;43683;48.650;9.290;2024-03-02T04:53:36;0.30;98.80
57857;DHT22;43683;48.650;9.290;2024-03-02T04:56:02;0.20;98.80
57857;DHT22;43683;48.650;9.290;2024-03-02T04:58:56;0.10;98.80
57857;DHT22;43683;48.650;9.290;2024-03-02T05:01:21;0.10;98.80
57857;DHT22;43683;48.650;9.290;2024-03-02T05:03:47;0.00;98.80
57857;DHT22;43683;48.650;9.290;2024-03-02T05:06:12;0.00;98.80
57857;DHT22;43683;48.650;9.290;2024-03-02T05:08:38;0.00;98.80
57857;DHT22;43683;48.650;9.290;2024-03-02T05:11:03;0.00;98.80
57857;DHT22;43683;48.650;9.290;2024-03-02T05:13:47;0.00;98.80
57857;DHT22;43683;48.650;9.290;2024-03-02T05:16:13;-0.10;98.80
57857;DHT22;43683;48.650;9.290;2024-03-02T05:18:39;0.00;98.90
57857;DHT22;43683;48.650;9.290;2024-03-02T05:21:05;0.00;98.90
57857;DHT22;43683;48.650;9.290;2024-03-02T05:23:30;0.00;98.80
57857;DHT22;43683;48.650;9.290;2024-03-02T05:25:56;-0.10;98.80
57857;DHT22;43683;48.650;9.290;2024-03-02T05:28:21;-0.10;99.10
57857;DHT22;43683;48.650;9.290;2024-03-02T05:30:47;-0.10;98.80
57857;DHT22;43683;48.650;9.290;2024-03-02T05:33:12;-0.10;98.80
57857;DHT22;43683;48.650;9.290;2024-03-02T05:35:38;-0.20;98.80
57857;DHT22;43683;48.650;9.290;2024-03-02T05:38:03;-0.20;98.80
57857;DHT22;43683;48.650;9.290;2024-03-02T05:40:29;-0.30;98.80
57857;DHT22;43683;48.650;9.290;2024-03-02T05:42:54;-0.30;98.90
57857;DHT22;43683;48.650;9.290;2024-03-02T05:45:20;-0.30;98.90
57857;DHT22;43683;48.650;9.290;2024-03-02T05:47:45;-0.30;98.80
57857;DHT22;43683;48.650;9.290;2024-03-02T05:50:11;-0.30;98.80
57857;DHT22;43683;48.650;9.290;2024-03-02T05:52:36;-0.30;98.70
57857;DHT22;43683;48.650;9.290;2024-03-02T05:55:02;-0.30;98.70
57857;DHT22;43683;48.650;9.290;2024-03-02T05:57:28;-0.20;98.70
57857;DHT22;43683;48.650;9.290;2024-03-02T06:00:09;-0.20;98.70
57857;DHT22;43683;48.650;9.290;2024-03-02T06:02:34;-0.20;98.60
57857;DHT22;43683;48.650;9.290;2024-03-02T06:05:03;-0.10;98.60
57857;DHT22;43683;48.650;9.290;2024-03-02T06:07:29;0.00;98.50
57857;DHT22;43683;48.650;9.290;2024-03-02T06:09:55;0.10;98.50
57857;DHT22;43683;48.650;9.290;2024-03-02T06:12:20;0.10;98.50
57857;DHT22;43683;48.650;9.290;2024-03-02T06:14:46;0.00;98.70
57857;DHT22;43683;48.650;9.290;2024-03-02T06:17:11;0.10;98.90
57857;DHT22;43683;48.650;9.290;2024-03-02T06:19:37;0.10;98.90
57857;DHT22;43683;48.650;9.290;2024-03-02T06:22:03;0.20;98.90
57857;DHT22;43683;48.650;9.290;2024-03-02T06:24:29;0.20;98.90
57857;DHT22;43683;48.650;9.290;2024-03-02T06:26:54;0.30;98.90
57857;DHT22;43683;48.650;9.290;2024-03-02T06:29:20;0.30;98.90
57857;DHT22;43683;48.650;9.290;2024-03-02T06:31:47;0.40;98.90
57857;DHT22;43683;48.650;9.290;2024-03-02T06:34:12;0.40;98.90
57857;DHT22;43683;48.650;9.290;2024-03-02T06:36:38;0.50;98.90
57857;DHT22;43683;48.650;9.290;2024-03-02T06:39:05;0.60;98.90
57857;DHT22;43683;48.650;9.290;2024-03-02T06:41:31;0.60;98.90
57857;DHT22;43683;48.650;9.290;2024-03-02T06:43:56;0.70;98.90
57857;DHT22;43683;48.650;9.290;2024-03-02T06:46:25;0.80;98.90
57857;DHT22;43683;48.650;9.290;2024-03-02T06:48:50;0.80;98.90
57857;DHT22;43683;48.650;9.290;2024-03-02T06:51:16;0.90;99.00
57857;DHT22;43683;48.650;9.290;2024-03-02T06:53:41;1.00;99.00
57857;DHT22;43683;48.650;9.290;2024-03-02T06:56:07;1.10;99.00
57857;DHT22;43683;48.650;9.290;2024-03-02T06:58:34;1.30;99.00
57857;DHT22;43683;48.650;9.290;2024-03-02T07:01:00;1.50;98.90
57857;DHT22;43683;48.650;9.290;2024-03-02T07:03:28;1.70;98.90
57857;DHT22;43683;48.650;9.290;2024-03-02T07:05:54;1.90;98.70
57857;DHT22;43683;48.650;9.290;2024-03-02T07:08:19;2.00;98.60
57857;DHT22;43683;48.650;9.290;2024-03-02T07:10:45;2.20;98.50
57857;DHT22;43683;48.650;9.290;2024-03-02T07:13:10;2.30;98.40
57857;DHT22;43683;48.650;9.290;2024-03-02T07:15:36;2.50;98.40
57857;DHT22;43683;48.650;9.290;2024-03-02T07:18:20;2.60;98.40
57857;DHT22;43683;48.650;9.290;2024-03-02T07:20:45;2.80;98.40
57857;DHT22;43683;48.650;9.290;2024-03-02T07:23:11;3.10;98.30
57857;DHT22;43683;48.650;9.290;2024-03-02T07:25:36;3.30;98.30
57857;DHT22;43683;48.650;9.290;2024-03-02T07:28:02;3.60;98.30
57857;DHT22;43683;48.650;9.290;2024-03-02T07:30:28;3.90;98.30
57857;DHT22;43683;48.650;9.290;2024-03-02T07:32:53;4.10;98.30
57857;DHT22;43683;48.650;9.290;2024-03-02T07:35:19;4.50;98.30
57857;DHT22;43683;48.650;9.290;2024-03-02T07:37:44;4.80;98.40
57857;DHT22;43683;48.650;9.290;2024-03-02T07:40:10;5.10;98.50
57857;DHT22;43683;48.650;9.290;2024-03-02T07:42:39;5.40;98.50
57857;DHT22;43683;48.650;9.290;2024-03-02T07:45:05;5.60;98.70
57857;DHT22;43683;48.650;9.290;2024-03-02T07:47:35;5.70;98.80
57857;DHT22;43683;48.650;9.290;2024-03-02T07:50:00;5.80;98.90
57857;DHT22;43683;48.650;9.290;2024-03-02T07:52:26;5.80;98.90
57857;DHT22;43683;48.650;9.290;2024-03-02T07:54:51;5.80;99.00
57857;DHT22;43683;48.650;9.290;2024-03-02T07:57:17;5.80;98.90
57857;DHT22;43683;48.650;9.290;2024-03-02T07:59:42;5.80;98.90
57857;DHT22;43683;48.650;9.290;2024-03-02T08:02:08;5.80;98.80
57857;DHT22;43683;48.650;9.290;2024-03-02T08:04:34;5.80;98.70
57857;DHT22;43683;48.650;9.290;2024-03-02T08:06:59;5.80;98.60
57857;DHT22;43683;48.650;9.290;2024-03-02T08:09:25;5.80;98.50
57857;DHT22;43683;48.650;9.290;2024-03-02T08:11:51;5.80;98.40
57857;DHT22;43683;48.650;9.290;2024-03-02T08:14:16;5.90;98.40
57857;DHT22;43683;48.650;9.290;2024-03-02T08:16:42;5.90;98.30
57857;DHT22;43683;48.650;9.290;2024-03-02T08:19:08;6.00;98.10
57857;DHT22;43683;48.650;9.290;2024-03-02T08:21:34;6.10;97.90
57857;DHT22;43683;48.650;9.290;2024-03-02T08:24:01;6.10;97.80
57857;DHT22;43683;48.650;9.290;2024-03-02T08:26:27;6.20;97.70
57857;DHT22;43683;48.650;9.290;2024-03-02T08:28:55;6.30;97.60
57857;DHT22;43683;48.650;9.290;2024-03-02T08:31:20;6.40;97.50
57857;DHT22;43683;48.650;9.290;2024-03-02T08:33:46;6.60;97.70
57857;DHT22;43683;48.650;9.290;2024-03-02T08:36:12;7.10;98.00
57857;DHT22;43683;48.650;9.290;2024-03-02T08:38:37;7.50;98.10
57857;DHT22;43683;48.650;9.290;2024-03-02T08:41:03;7.80;97.90
57857;DHT22;43683;48.650;9.290;2024-03-02T08:43:29;8.00;97.60
57857;DHT22;43683;48.650;9.290;2024-03-02T08:45:55;8.20;97.40
57857;DHT22;43683;48.650;9.290;2024-03-02T08:48:20;8.30;97.20
57857;DHT22;43683;48.650;9.290;2024-03-02T08:50:46;8.70;97.40
57857;DHT22;43683;48.650;9.290;2024-03-02T08:53:12;9.10;97.30
57857;DHT22;43683;48.650;9.290;2024-03-02T08:55:37;9.60;97.00
57857;DHT22;43683;48.650;9.290;2024-03-02T08:58:03;9.90;96.60
57857;DHT22;43683;48.650;9.290;2024-03-02T09:00:28;10.00;96.00
57857;DHT22;43683;48.650;9.290;2024-03-02T09:02:54;10.20;95.60
57857;DHT22;43683;48.650;9.290;2024-03-02T09:05:20;10.30;95.10
57857;DHT22;43683;48.650;9.290;2024-03-02T09:07:45;10.30;94.70
57857;DHT22;43683;48.650;9.290;2024-03-02T09:10:11;10.50;94.30
57857;DHT22;43683;48.650;9.290;2024-03-02T09:12:37;10.70;94.10
57857;DHT22;43683;48.650;9.290;2024-03-02T09:15:03;11.00;93.90
57857;DHT22;43683;48.650;9.290;2024-03-02T09:17:29;11.30;93.70
57857;DHT22;43683;48.650;9.290;2024-03-02T09:19:55;11.60;93.30
57857;DHT22;43683;48.650;9.290;2024-03-02T09:22:21;11.90;93.00
57857;DHT22;43683;48.650;9.290;2024-03-02T09:24:46;12.10;92.50
57857;DHT22;43683;48.650;9.290;2024-03-02T09:27:12;12.30;92.30
57857;DHT22;43683;48.650;9.290;2024-03-02T09:29:38;12.40;91.80
57857;DHT22;43683;48.650;9.290;2024-03-02T09:32:07;12.50;91.30
57857;DHT22;43683;48.650;9.290;2024-03-02T09:34:33;12.60;91.20
57857;DHT22;43683;48.650;9.290;2024-03-02T09:36:59;12.80;90.80
57857;DHT22;43683;48.650;9.290;2024-03-02T09:39:25;13.10;90.30
57857;DHT22;43683;48.650;9.290;2024-03-02T09:41:51;13.30;90.10
57857;DHT22;43683;48.650;9.290;2024-03-02T09:44:17;13.70;89.40
57857;DHT22;43683;48.650;9.290;2024-03-02T09:46:44;14.10;88.10
57857;DHT22;43683;48.650;9.290;2024-03-02T09:49:14;14.50;87.70
57857;DHT22;43683;48.650;9.290;2024-03-02T09:51:40;14.80;86.00
57857;DHT22;43683;48.650;9.290;2024-03-02T09:54:11;15.00;84.30
57857;DHT22;43683;48.650;9.290;2024-03-02T09:56:38;15.30;83.10
57857;DHT22;43683;48.650;9.290;2024-03-02T09:59:04;15.60;82.30
57857;DHT22;43683;48.650;9.290;2024-03-02T10:01:31;15.90;80.90
57857;DHT22;43683;48.650;9.290;2024-03-02T10:03:59;16.10;79.60
57857;DHT22;43683;48.650;9.290;2024-03-02T10:06:27;16.30;77.70
57857;DHT22;43683;48.650;9.290;2024-03-02T10:08:54;16.40;76.60
57857;DHT22;43683;48.650;9.290;2024-03-02T10:14:07;16.50;73.90
57857;DHT22;43683;48.650;9.290;2024-03-02T10:16:35;16.70;72.40
57857;DHT22;43683;48.650;9.290;2024-03-02T10:19:34;16.80;72.60
57857;DHT22;43683;48.650;9.290;2024-03-02T10:21:58;16.90;74.40
57857;DHT22;43683;48.650;9.290;2024-03-02T10:24:24;17.10;73.30
57857;DHT22;43683;48.650;9.290;2024-03-02T10:26:52;17.00;71.50
57857;DHT22;43683;48.650;9.290;2024-03-02T10:29:18;17.20;70.40
57857;DHT22;43683;48.650;9.290;2024-03-02T10:31:44;17.40;69.20
57857;DHT22;43683;48.650;9.290;2024-03-02T10:34:12;17.40;68.30
57857;DHT22;43683;48.650;9.290;2024-03-02T10:36:42;17.60;67.00
57857;DHT22;43683;48.650;9.290;2024-03-02T10:39:09;17.70;65.90
57857;DHT22;43683;48.650;9.290;2024-03-02T10:41:38;17.70;66.00
57857;DHT22;43683;48.650;9.290;2024-03-02T10:44:09;17.90;64.60
57857;DHT22;43683;48.650;9.290;2024-03-02T10:46:36;17.90;63.80
57857;DHT22;43683;48.650;9.290;2024-03-02T10:49:04;17.90;63.00
57857;DHT22;43683;48.650;9.290;2024-03-02T10:51:32;17.90;61.60
57857;DHT22;43683;48.650;9.290;2024-03-02T10:53:59;17.80;61.80
57857;DHT22;43683;48.650;9.290;2024-03-02T10:56:33;17.80;60.90
57857;DHT22;43683;48.650;9.290;2024-03-02T11:01:31;17.50;60.30
57857;DHT22;43683;48.650;9.290;2024-03-02T11:03:58;17.60;60.10
57857;DHT22;43683;48.650;9.290;2024-03-02T11:06:26;17.60;60.30
57857;DHT22;43683;48.650;9.290;2024-03-02T11:08:55;17.60;59.10
57857;DHT22;43683;48.650;9.290;2024-03-02T11:11:29;17.40;59.00
57857;DHT22;43683;48.650;9.290;2024-03-02T11:13:57;17.60;58.20
57857;DHT22;43683;48.650;9.290;2024-03-02T11:16:34;17.70;58.00
57857;DHT22;43683;48.650;9.290;2024-03-02T11:19:11;18.00;57.50
57857;DHT22;43683;48.650;9.290;2024-03-02T11:21:37;18.30;56.90
57857;DHT22;43683;48.650;9.290;2024-03-02T11:26:51;18.80;56.20
57857;DHT22;43683;48.650;9.290;2024-03-02T11:32:06;18.90;55.20
57857;DHT22;43683;48.650;9.290;2024-03-02T11:34:34;18.70;54.50
57857;DHT22;43683;48.650;9.290;2024-03-02T11:37:02;18.80;54.70
57857;DHT22;43683;48.650;9.290;2024-03-02T11:39:29;18.90;54.00
57857;DHT22;43683;48.650;9.290;2024-03-02T11:41:58;18.90;53.60
57857;DHT22;43683;48.650;9.290;2024-03-02T11:44:26;19.10;53.40
57857;DHT22;43683;48.650;9.290;2024-03-02T11:46:58;18.70;52.70
57857;DHT22;43683;48.650;9.290;2024-03-02T11:49:37;18.50;53.00
57857;DHT22;43683;48.650;9.290;2024-03-02T11:52:05;18.70;52.70
57857;DHT22;43683;48.650;9.290;2024-03-02T11:54:33;18.80;52.70
57857;DHT22;43683;48.650;9.290;2024-03-02T11:57:02;18.90;52.40
57857;DHT22;43683;48.650;9.290;2024-03-02T11:59:29;18.80;52.60
57857;DHT22;43683;48.650;9.290;2024-03-02T12:01:55;19.10;52.20
57857;DHT22;43683;48.650;9.290;2024-03-02T12:04:21;19.20;53.20
57857;DHT22;43683;48.650;9.290;2024-03-02T12:06:58;19.30;52.20
57857;DHT22;43683;48.650;9.290;2024-03-02T12:09:28;19.20;51.40
57857;DHT22;43683;48.650;9.290;2024-03-02T12:12:07;19.10;51.60
57857;DHT22;43683;48.650;9.290;2024-03-02T12:14:35;19.00;51.10
57857;DHT22;43683;48.650;9.290;2024-03-02T12:17:01;19.20;50.80
57857;DHT22;43683;48.650;9.290;2024-03-02T12:19:27;19.20;50.30
57857;DHT22;43683;48.650;9.290;2024-03-02T12:21:58;19.20;49.70
57857;DHT22;43683;48.650;9.290;2024-03-02T12:24:26;19.10;49.50
57857;DHT22;43683;48.650;9.290;2024-03-02T12:26:52;19.30;49.30
57857;DHT22;43683;48.650;9.290;2024-03-02T12:29:20;19.20;48.90
57857;DHT22;43683;48.650;9.290;2024-03-02T12:31:48;19.10;49.20
57857;DHT22;43683;48.650;9.290;2024-03-02T12:34:15;19.00;48.90
57857;DHT22;43683;48.650;9.290;2024-03-02T12:36:41;19.10;48.30
57857;DHT22;43683;48.650;9.290;2024-03-02T12:39:10;19.10;48.50
57857;DHT22;43683;48.650;9.290;2024-03-02T12:41:36;19.40;48.10
57857;DHT22;43683;48.650;9.290;2024-03-02T12:44:03;19.50;47.70
57857;DHT22;43683;48.650;9.290;2024-03-02T12:46:30;19.60;47.40
57857;DHT22;43683;48.650;9.290;2024-03-02T12:48:56;19.80;46.90
57857;DHT22;43683;48.650;9.290;2024-03-02T12:51:22;19.60;45.90
57857;DHT22;43683;48.650;9.290;2024-03-02T12:53:55;19.60;45.70
57857;DHT22;43683;48.650;9.290;2024-03-02T12:56:22;19.70;45.20
57857;DHT22;43683;48.650;9.290;2024-03-02T12:58:47;19.90;45.30
57857;DHT22;43683;48.650;9.290;2024-03-02T13:01:14;19.70;45.00
57857;DHT22;43683;48.650;9.290;2024-03-02T13:03:41;19.70;45.00
57857;DHT22;43683;48.650;9.290;2024-03-02T13:06:07;19.80;45.30
57857;DHT22;43683;48.650;9.290;2024-03-02T13:08:33;19.90;45.10
57857;DHT22;43683;48.650;9.290;2024-03-02T13:10:59;20.00;44.80
57857;DHT22;43683;48.650;9.290;2024-03-02T13:13:25;20.10;44.80
57857;DHT22;43683;48.650;9.290;2024-03-02T13:15:55;20.20;45.00
57857;DHT22;43683;48.650;9.290;2024-03-02T13:18:21;20.30;44.30
57857;DHT22;43683;48.650;9.290;2024-03-02T13:20:47;20.40;44.10
57857;DHT22;43683;48.650;9.290;2024-03-02T13:23:13;20.30;44.20
57857;DHT22;43683;48.650;9.290;2024-03-02T13:25:39;20.20;43.70
57857;DHT22;43683;48.650;9.290;2024-03-02T13:28:06;20.10;43.50
57857;DHT22;43683;48.650;9.290;2024-03-02T13:30:32;20.10;43.50
57857;DHT22;43683;48.650;9.290;2024-03-02T13:32:58;19.90;43.30
57857;DHT22;43683;48.650;9.290;2024-03-02T13:35:23;19.90;43.10
57857;DHT22;43683;48.650;9.290;2024-03-02T13:37:49;19.90;43.10
57857;DHT22;43683;48.650;9.290;2024-03-02T13:40:15;19.90;42.90
57857;DHT22;43683;48.650;9.290;2024-03-02T13:42:46;20.00;43.20
57857;DHT22;43683;48.650;9.290;2024-03-02T13:45:12;20.10;43.20
57857;DHT22;43683;48.650;9.290;2024-03-02T13:47:38;20.00;43.00
57857;DHT22;43683;48.650;9.290;2024-03-02T13:50:04;19.90;43.20
57857;DHT22;43683;48.650;9.290;2024-03-02T13:52:30;20.00;43.00
57857;DHT22;43683;48.650;9.290;2024-03-02T13:54:56;20.10;43.00
57857;DHT22;43683;48.650;9.290;2024-03-02T13:57:22;19.90;42.40
57857;DHT22;43683;48.650;9.290;2024-03-02T13:59:48;19.80;42.70
57857;DHT22;43683;48.650;9.290;2024-03-02T14:02:15;19.80;43.00
57857;DHT22;43683;48.650;9.290;2024-03-02T14:04:40;19.90;42.90
57857;DHT22;43683;48.650;9.290;2024-03-02T14:07:06;20.00;42.60
57857;DHT22;43683;48.650;9.290;2024-03-02T14:09:36;19.80;42.30
57857;DHT22;43683;48.650;9.290;2024-03-02T14:12:02;19.40;42.60
57857;DHT22;43683;48.650;9.290;2024-03-02T14:14:28;19.30;42.70
57857;DHT22;43683;48.650;9.290;2024-03-02T14:16:54;19.30;42.70
57857;DHT22;43683;48.650;9.290;2024-03-02T14:19:21;19.10;42.70
57857;DHT22;43683;48.650;9.290;2024-03-02T14:21:47;18.90;42.80
57857;DHT22;43683;48.650;9.290;2024-03-02T14:24:13;18.70;43.00
57857;DHT22;43683;48.650;9.290;2024-03-02T14:26:38;18.50;43.50
57857;DHT22;43683;48.650;9.290;2024-03-02T14:29:05;18.30;43.70
57857;DHT22;43683;48.650;9.290;2024-03-02T14:31:31;18.10;43.60
57857;DHT22;43683;48.650;9.290;2024-03-02T14:33:58;18.10;43.50
57857;DHT22;43683;48.650;9.290;2024-03-02T14:36:24;18.20;43.70
57857;DHT22;43683;48.650;9.290;2024-03-02T14:38:50;18.30;43.50
57857;DHT22;43683;48.650;9.290;2024-03-02T14:41:16;18.20;42.90
57857;DHT22;43683;48.650;9.290;2024-03-02T14:43:42;17.90;42.90
57857;DHT22;43683;48.650;9.290;2024-03-02T14:46:08;17.80;43.00
57857;DHT22;43683;48.650;9.290;2024-03-02T14:48:35;17.80;42.90
57857;DHT22;43683;48.650;9.290;2024-03-02T14:51:00;17.70;42.80
57857;DHT22;43683;48.650;9.290;2024-03-02T14:53:27;17.60;42.80
57857;DHT22;43683;48.650;9.290;2024-03-02T14:55:54;17.40;42.70
57857;DHT22;43683;48.650;9.290;2024-03-02T14:58:19;17.40;42.50
57857;DHT22;43683;48.650;9.290;2024-03-02T15:00:45;17.30;42.20
57857;DHT22;43683;48.650;9.290;2024-03-02T15:03:11;17.20;42.00
57857;DHT22;43683;48.650;9.290;2024-03-02T15:05:37;17.20;41.60
57857;DHT22;43683;48.650;9.290;2024-03-02T15:08:04;17.30;41.50
57857;DHT22;43683;48.650;9.290;2024-03-02T15:10:30;17.30;41.20
57857;DHT22;43683;48.650;9.290;2024-03-02T15:12:57;17.20;41.10
57857;DHT22;43683;48.650;9.290;2024-03-02T15:15:23;17.30;41.00
57857;DHT22;43683;48.650;9.290;2024-03-02T15:17:48;17.20;40.90
57857;DHT22;43683;48.650;9.290;2024-03-02T15:20:14;16.90;40.90
57857;DHT22;43683;48.650;9.290;2024-03-02T15:22:41;16.60;41.40
57857;DHT22;43683;48.650;9.290;2024-03-02T15:25:08;16.20;41.90
57857;DHT22;43683;48.650;9.290;2024-03-02T15:27:34;15.70;42.60
57857;DHT22;43683;48.650;9.290;2024-03-02T15:30:00;15.40;43.40
57857;DHT22;43683;48.650;9.290;2024-03-02T15:32:26;15.00;43.90
57857;DHT22;43683;48.650;9.290;2024-03-02T15:34:55;14.70;44.20
57857;DHT22;43683;48.650;9.290;2024-03-02T15:37:21;14.50;44.70
57857;DHT22;43683;48.650;9.290;2024-03-02T15:39:46;14.20;44.90
57857;DHT22;43683;48.650;9.290;2024-03-02T15:42:12;14.00;45.10
57857;DHT22;43683;48.650;9.290;2024-03-02T15:44:38;13.80;45.40
57857;DHT22;43683;48.650;9.290;2024-03-02T15:47:04;13.70;45.80
57857;DHT22;43683;48.650;9.290;2024-03-02T15:49:30;13.50;46.20
57857;DHT22;43683;48.650;9.290;2024-03-02T15:51:57;13.40;47.00